Time;durP1;ratioP1;P1;durP2;ratioP2;P2;SDS_P1;SDS_P2;PMS_P1;PMS_P2;Temp;Humidity;BMP_temperature;BMP_pressure;BME280_temperature;BME280_humidity;BME280_pressure;Samples;Min_cycle;Max_cycle;Signal;HPM_P1;HPM_P2
2022/07/24 00:01:34;;;;;;;;;17.25;14.75;;;;;25.15;77.66;101709.34;5142147;27;45406;-86
2022/07/24 00:04:00;;;;;;;;;15.75;15.00;;;;;25.15;77.18;101714.66;5142932;27;45391;-88
2022/07/24 00:06:27;;;;;;;;;11.50;10.00;;;;;25.10;77.70;101716.44;5109137;27;45534;-91
2022/07/24 00:08:52;;;;;;;;;13.75;13.50;;;;;25.11;77.69;101724.38;5126921;27;46024;-91
2022/07/24 00:11:18;;;;;;;;;14.00;13.25;;;;;25.12;78.03;101723.50;5130526;27;45321;-92
2022/07/24 00:13:44;;;;;;;;;14.25;13.75;;;;;25.12;78.41;101722.59;5109869;27;45384;-89
2022/07/24 00:16:09;;;;;;;;;15.25;13.00;;;;;25.09;78.58;101718.19;5124369;27;45630;-90
2022/07/24 00:18:35;;;;;;;;;19.75;16.75;;;;;25.06;78.38;101719.97;5122076;27;45226;-90
2022/07/24 00:21:01;;;;;;;;;15.50;14.50;;;;;24.98;78.64;101725.25;5103693;27;45270;-88
2022/07/24 00:23:27;;;;;;;;;15.50;13.00;;;;;24.90;78.83;101722.59;5123959;27;45292;-90
2022/07/24 00:25:53;;;;;;;;;13.00;12.75;;;;;24.92;79.77;101714.69;5122820;27;45523;-89
2022/07/24 00:28:19;;;;;;;;;14.50;13.50;;;;;24.90;79.19;101708.50;5105208;27;47420;-86
2022/07/24 00:30:45;;;;;;;;;17.00;15.00;;;;;24.84;79.53;101702.31;5137526;27;45390;-87
2022/07/24 00:33:10;;;;;;;;;20.50;18.00;;;;;24.82;79.47;101688.19;5133153;27;45529;-91
2022/07/24 00:35:36;;;;;;;;;16.50;13.75;;;;;24.77;80.69;101679.34;5131313;27;45383;-90
2022/07/24 00:38:02;;;;;;;;;18.25;15.50;;;;;24.72;80.92;101670.56;5136782;27;45363;-89
2022/07/24 00:40:29;;;;;;;;;12.75;12.75;;;;;24.74;81.18;101684.66;5117220;27;45705;-92
2022/07/24 00:42:55;;;;;;;;;16.25;15.00;;;;;24.69;80.80;101668.75;5138547;27;45287;-85
2022/07/24 00:45:21;;;;;;;;;14.50;13.00;;;;;24.75;79.99;101672.31;5118020;27;44764;-90
2022/07/24 00:47:47;;;;;;;;;17.00;15.25;;;;;24.71;80.21;101676.72;5113037;27;46493;-92
2022/07/24 00:50:12;;;;;;;;;15.00;13.50;;;;;24.60;80.12;101660.78;5124640;27;45314;-93
2022/07/24 00:52:38;;;;;;;;;16.00;13.00;;;;;24.55;80.22;101658.16;5104764;27;45249;-88
2022/07/24 00:55:05;;;;;;;;;12.25;11.25;;;;;24.61;80.07;101665.22;5123971;27;45420;-90
2022/07/24 00:57:30;;;;;;;;;17.75;13.00;;;;;24.62;80.42;101663.47;5126970;27;46391;-89
2022/07/24 00:59:57;;;;;;;;;15.00;13.75;;;;;24.62;79.64;101661.69;5114961;27;45340;-84
2022/07/24 01:02:23;;;;;;;;;12.00;11.25;;;;;24.60;80.00;101650.19;5135247;27;45341;-85
2022/07/24 01:04:50;;;;;;;;;12.75;12.75;;;;;24.61;80.18;101662.56;5114455;27;45576;-91
2022/07/24 01:07:17;;;;;;;;;13.00;13.00;;;;;24.50;80.31;101645.78;5110694;27;47139;-93
2022/07/24 01:09:43;;;;;;;;;13.25;12.00;;;;;24.56;80.09;101659.06;5108590;27;45313;-91
2022/07/24 01:12:09;;;;;;;;;15.00;14.00;;;;;24.52;80.78;101663.44;5123759;27;45187;-92
2022/07/24 01:14:35;;;;;;;;;16.25;14.50;;;;;24.52;80.66;101675.81;5128847;27;45528;-92
2022/07/24 01:17:01;;;;;;;;;14.25;12.25;;;;;24.50;81.09;101672.25;5143798;27;46207;-90
2022/07/24 01:19:27;;;;;;;;;15.75;14.00;;;;;24.34;81.17;101643.16;5124841;27;45365;-91
2022/07/24 01:21:54;;;;;;;;;14.50;13.00;;;;;24.34;81.23;101660.78;5111260;27;45490;-91
2022/07/24 01:24:21;;;;;;;;;15.50;11.50;;;;;24.34;81.71;101661.69;5105185;27;45582;-90
2022/07/24 01:26:48;;;;;;;;;11.75;11.75;;;;;24.38;81.22;101662.56;5126150;27;45299;-91
2022/07/24 01:29:14;;;;;;;;;15.25;12.00;;;;;24.33;82.53;101666.94;5112503;27;45102;-92
2022/07/24 01:31:40;;;;;;;;;15.25;12.50;;;;;24.34;81.97;101674.91;5128855;27;45414;-93
2022/07/24 01:34:07;;;;;;;;;12.50;11.25;;;;;24.29;82.57;101668.72;5127612;27;45457;-92
2022/07/24 01:36:33;;;;;;;;;14.00;14.00;;;;;24.22;83.39;101653.72;5108253;27;46844;-94
2022/07/24 01:38:58;;;;;;;;;16.25;15.25;;;;;24.23;83.50;101671.38;5124650;27;45828;-93
2022/07/24 01:41:24;;;;;;;;;15.50;13.25;;;;;24.08;84.16;101640.47;5104986;27;45275;-90
2022/07/24 01:43:50;;;;;;;;;15.50;13.50;;;;;24.10;83.58;101652.81;5123211;27;45176;-92
2022/07/24 01:46:15;;;;;;;;;14.00;14.00;;;;;24.15;84.04;101665.16;5121911;27;46406;-89
2022/07/24 01:48:42;;;;;;;;;12.75;11.25;;;;;24.13;84.50;101661.66;5104569;27;45476;-94
2022/07/24 01:51:08;;;;;;;;;20.00;16.00;;;;;24.03;84.84;101647.50;5104551;27;45410;-89
2022/07/24 01:53:35;;;;;;;;;14.50;12.75;;;;;24.11;85.18;101662.53;5129337;27;45615;-93
2022/07/24 01:56:01;;;;;;;;;14.25;13.00;;;;;24.05;84.68;101651.91;5126692;27;46385;-93
2022/07/24 01:58:28;;;;;;;;;14.50;12.50;;;;;23.99;85.92;101643.97;5125034;27;45322;-93
2022/07/24 02:00:53;;;;;;;;;15.50;12.50;;;;;24.00;85.47;101650.13;5125655;27;45461;-93
2022/07/24 02:03:19;;;;;;;;;15.75;13.75;;;;;23.95;85.15;101645.75;5125678;27;45510;-93
2022/07/24 02:05:45;;;;;;;;;18.50;15.50;;;;;24.00;86.15;101656.31;5104862;27;46643;-88
2022/07/24 02:08:11;;;;;;;;;15.00;15.00;;;;;23.98;86.28;101657.19;5121948;27;45345;-92
2022/07/24 02:10:37;;;;;;;;;15.75;15.00;;;;;23.93;86.45;101646.56;5103426;27;45379;-92
2022/07/24 02:13:03;;;;;;;;;13.00;12.00;;;;;23.94;86.46;101643.03;5124688;27;45446;-93
2022/07/24 02:15:29;;;;;;;;;20.00;17.00;;;;;23.95;86.76;101636.91;5135593;27;45134;-92
2022/07/24 02:18:00;;;;;;;;;18.25;15.50;;;;;23.88;86.51;101637.75;5137281;27;45570;-91
2022/07/24 02:20:29;;;;;;;;;13.25;13.25;;;;;23.85;86.99;101632.44;5135179;27;45262;-91
2022/07/24 02:22:55;;;;;;;;;13.50;12.50;;;;;23.72;87.14;101611.25;5111947;27;45550;-91
2022/07/24 02:25:22;;;;;;;;;17.00;16.25;;;;;23.76;87.26;101612.13;5107528;27;48094;-88
2022/07/24 02:27:48;;;;;;;;;17.25;15.75;;;;;23.73;86.53;101610.38;5125409;27;45409;-93
2022/07/24 02:30:17;;;;;;;;;17.00;15.25;;;;;23.64;86.88;101603.31;5105738;27;45527;-94
2022/07/24 02:32:43;;;;;;;;;15.75;14.25;;;;;23.83;88.09;101634.19;5106996;27;45200;-93
2022/07/24 02:35:09;;;;;;;;;18.00;17.50;;;;;23.65;87.16;101607.69;5124330;27;46267;-92
2022/07/24 02:37:38;;;;;;;;;22.50;18.25;;;;;23.77;87.87;101627.13;5103881;27;45364;-90
2022/07/24 02:40:06;;;;;;;;;19.50;15.50;;;;;23.79;88.52;101630.66;5109556;27;45412;-91
2022/07/24 02:42:31;;;;;;;;;11.50;10.25;;;;;23.76;88.13;101628.91;5134578;27;45137;-90
2022/07/24 02:44:57;;;;;;;;;17.25;15.00;;;;;23.70;89.06;101623.59;5114804;27;46605;-90
2022/07/24 02:47:22;;;;;;;;;20.75;19.00;;;;;23.73;88.60;101620.06;5129533;27;45346;-92
2022/07/24 02:49:48;;;;;;;;;19.75;18.00;;;;;23.73;88.57;101613.00;5124865;27;45252;-90
2022/07/24 02:52:13;;;;;;;;;15.75;14.75;;;;;23.72;88.83;101607.72;5127503;27;45574;-90
2022/07/24 02:54:39;;;;;;;;;19.50;18.00;;;;;23.74;88.22;101613.91;5135695;27;45445;-88
2022/07/24 02:57:05;;;;;;;;;17.00;16.75;;;;;23.67;88.92;101606.81;5135269;27;44831;-92
2022/07/24 02:59:31;;;;;;;;;19.50;17.25;;;;;23.67;88.85;101604.16;5123559;27;45317;-92
2022/07/24 03:01:57;;;;;;;;;17.00;16.00;;;;;23.65;88.74;101598.91;5123826;27;45318;-92
2022/07/24 03:04:23;;;;;;;;;19.00;17.50;;;;;23.59;88.94;101597.13;5124157;27;45684;-90
2022/07/24 03:06:48;;;;;;;;;18.75;17.25;;;;;23.61;88.82;101602.41;5103337;27;45366;-91
2022/07/24 03:09:14;;;;;;;;;19.75;14.75;;;;;23.57;88.97;101592.72;5125670;27;45274;-91
2022/07/24 03:11:40;;;;;;;;;17.50;15.50;;;;;23.58;89.02;101591.84;5128826;27;45208;-90
2022/07/24 03:14:05;;;;;;;;;16.50;15.50;;;;;23.61;89.28;101602.41;5127206;27;45762;-89
2022/07/24 03:16:31;;;;;;;;;17.25;16.00;;;;;23.58;88.96;101597.13;5123564;27;45509;-90
2022/07/24 03:18:57;;;;;;;;;12.75;12.75;;;;;23.58;89.37;101600.63;5125441;27;45280;-92
2022/07/24 03:21:23;;;;;;;;;15.25;14.50;;;;;23.53;89.41;101588.28;5123537;27;45342;-91
2022/07/24 03:23:49;;;;;;;;;17.25;17.00;;;;;23.54;89.48;101592.69;5121881;27;45436;-91
2022/07/24 03:26:14;;;;;;;;;14.50;14.50;;;;;23.60;89.54;101604.16;5104359;27;45452;-90
2022/07/24 03:28:40;;;;;;;;;19.75;18.50;;;;;23.59;89.45;101605.03;5105450;27;45353;-92
2022/07/24 03:31:05;;;;;;;;;16.50;15.75;;;;;23.62;89.50;101607.72;5105637;27;45263;-93
2022/07/24 03:33:31;;;;;;;;;17.75;15.75;;;;;23.60;89.29;101596.25;5105300;27;47144;-93
2022/07/24 03:35:57;;;;;;;;;18.00;15.50;;;;;23.61;89.19;101603.28;5127694;27;45259;-91
2022/07/24 03:38:22;;;;;;;;;15.50;15.00;;;;;23.61;88.39;101591.81;5126971;27;45334;-89
2022/07/24 03:40:48;;;;;;;;;18.00;16.00;;;;;23.65;88.79;101605.03;5104418;27;45510;-93
2022/07/24 03:43:13;;;;;;;;;17.00;14.00;;;;;23.58;88.42;101584.78;5104671;27;46694;-92
2022/07/24 03:45:39;;;;;;;;;16.75;16.25;;;;;23.63;87.95;101598.91;5121922;27;45302;-92
2022/07/24 03:48:05;;;;;;;;;17.50;15.75;;;;;23.58;88.18;101595.34;5104862;27;45225;-92
2022/07/24 03:50:30;;;;;;;;;16.50;15.50;;;;;23.51;88.02;101580.34;5104001;27;45202;-93
2022/07/24 03:52:56;;;;;;;;;15.50;15.50;;;;;23.61;87.90;101603.28;5121366;27;45339;-93
2022/07/24 03:55:22;;;;;;;;;19.25;16.50;;;;;23.56;88.08;101599.75;5104316;27;45261;-92
2022/07/24 03:57:48;;;;;;;;;17.50;13.00;;;;;23.56;88.19;101598.88;5125974;27;45306;-92
2022/07/24 04:00:14;;;;;;;;;18.25;15.50;;;;;23.52;88.38;101591.78;5138356;27;45040;-88
2022/07/24 04:02:40;;;;;;;;;17.00;15.00;;;;;23.54;88.31;101592.69;5135535;27;45252;-91
2022/07/24 04:05:08;;;;;;;;;18.50;17.25;;;;;23.53;89.00;101598.84;5112832;27;45670;-93
2022/07/24 04:07:35;;;;;;;;;19.25;16.75;;;;;23.49;89.63;101596.19;5106267;27;45440;-91
2022/07/24 04:10:01;;;;;;;;;16.00;15.75;;;;;23.48;88.14;101601.47;5107236;27;45379;-91
2022/07/24 04:12:27;;;;;;;;;16.25;14.50;;;;;23.42;89.07;101604.09;5103067;27;48063;-93
2022/07/24 04:14:53;;;;;;;;;21.75;18.50;;;;;23.38;89.66;101597.91;5122435;27;45259;-92
2022/07/24 04:17:18;;;;;;;;;15.25;14.50;;;;;23.47;89.08;101607.63;5121449;27;45274;-93
2022/07/24 04:19:44;;;;;;;;;20.25;18.00;;;;;23.47;90.54;101613.81;5105633;27;45622;-92
2022/07/24 04:22:09;;;;;;;;;21.75;21.25;;;;;23.44;90.35;101608.50;5123651;27;46043;-92
2022/07/24 04:24:35;;;;;;;;;20.75;20.00;;;;;23.43;90.31;101604.09;5123501;27;45258;-92
2022/07/24 04:27:01;;;;;;;;;19.75;19.75;;;;;23.41;91.16;101600.56;5112011;27;45317;-91
2022/07/24 04:29:26;;;;;;;;;19.25;18.75;;;;;23.36;90.99;101593.50;5113479;27;45301;-91
2022/07/24 04:31:52;;;;;;;;;19.00;18.00;;;;;23.44;91.34;101603.22;5128046;27;46338;-90
2022/07/24 04:34:17;;;;;;;;;23.25;21.25;;;;;23.43;91.00;101609.38;5130952;27;45263;-89
2022/07/24 04:36:43;;;;;;;;;21.00;18.75;;;;;23.40;90.58;101598.78;5130918;27;45238;-85
2022/07/24 04:39:09;;;;;;;;;19.00;17.00;;;;;23.41;91.22;101604.97;5127128;27;45328;-85
2022/07/24 04:41:35;;;;;;;;;21.50;18.75;;;;;23.42;91.43;101602.34;5123165;27;45340;-89
2022/07/24 04:44:00;;;;;;;;;19.75;17.75;;;;;23.40;90.91;101597.94;5121777;27;45450;-86
2022/07/24 04:46:27;;;;;;;;;18.75;17.00;;;;;23.42;91.26;101599.69;5121980;27;45255;-91
2022/07/24 04:48:52;;;;;;;;;17.00;16.25;;;;;23.41;91.42;101600.56;5122148;27;45576;-90
2022/07/24 04:51:18;;;;;;;;;19.25;17.75;;;;;23.46;92.05;101606.78;5124303;27;45328;-88
2022/07/24 04:53:43;;;;;;;;;22.00;20.50;;;;;23.43;91.72;101587.38;5128019;27;45293;-89
2022/07/24 04:56:09;;;;;;;;;24.00;20.00;;;;;23.46;91.67;101597.94;5126964;27;45314;-90
2022/07/24 04:58:36;;;;;;;;;23.75;18.25;;;;;23.46;91.76;101596.19;5129326;27;45473;-87
2022/07/24 05:01:04;;;;;;;;;24.00;21.00;;;;;23.44;91.86;101590.03;5126987;27;46295;-87
2022/07/24 05:03:30;;;;;;;;;21.50;19.75;;;;;23.48;92.04;101612.06;5110570;27;45778;-88
2022/07/24 05:05:55;;;;;;;;;23.75;20.25;;;;;23.49;91.64;101596.19;5130090;27;45308;-89
2022/07/24 05:08:21;;;;;;;;;19.00;17.50;;;;;23.55;91.50;101597.09;5109306;27;45281;-88
2022/07/24 05:10:47;;;;;;;;;27.75;22.75;;;;;23.52;90.69;101597.09;5133965;27;46077;-90
2022/07/24 05:13:12;;;;;;;;;22.75;20.00;;;;;23.52;91.25;101600.63;5125051;27;45257;-89
2022/07/24 05:15:38;;;;;;;;;18.50;17.50;;;;;23.48;91.23;101591.81;5126242;27;45386;-91
2022/07/24 05:18:03;;;;;;;;;25.50;22.75;;;;;23.57;91.85;101605.94;5131594;27;45357;-88
2022/07/24 05:20:29;;;;;;;;;23.25;23.25;;;;;23.59;91.51;101605.03;5127636;27;45362;-87
2022/07/24 05:22:55;;;;;;;;;22.00;22.00;;;;;23.61;91.21;101605.03;5125334;27;45365;-93
2022/07/24 05:25:21;;;;;;;;;19.00;18.25;;;;;23.57;91.52;101600.63;5128198;27;45328;-87
2022/07/24 05:27:46;;;;;;;;;22.75;20.00;;;;;23.62;91.69;101599.78;5128312;27;45350;-90
2022/07/24 05:30:13;;;;;;;;;24.00;21.00;;;;;23.64;91.07;101602.41;5110009;27;45441;-88
2022/07/24 05:32:38;;;;;;;;;22.50;21.00;;;;;23.59;91.38;101596.25;5114259;27;45979;-92
2022/07/24 05:35:06;;;;;;;;;23.00;21.50;;;;;23.65;91.08;101602.41;5130802;27;45396;-91
2022/07/24 05:37:33;;;;;;;;;26.50;26.50;;;;;23.65;91.03;101598.91;5131263;27;45164;-88
2022/07/24 05:39:58;;;;;;;;;20.25;17.75;;;;;23.65;90.51;101602.41;5133206;27;45242;-91
2022/07/24 05:42:24;;;;;;;;;21.50;19.25;;;;;23.70;90.74;101604.19;5134622;27;45230;-88
2022/07/24 05:44:49;;;;;;;;;20.25;20.25;;;;;23.70;91.23;101601.53;5126612;27;44709;-89
2022/07/24 05:47:15;;;;;;;;;20.25;18.50;;;;;23.75;90.03;101602.47;5141381;27;45367;-89
2022/07/24 05:49:40;;;;;;;;;18.50;15.50;;;;;23.75;90.59;101599.81;5142907;27;45498;-90
2022/07/24 05:52:06;;;;;;;;;18.50;18.00;;;;;23.80;90.24;101598.03;5131768;27;45277;-89
2022/07/24 05:54:31;;;;;;;;;19.00;19.00;;;;;23.89;89.21;101608.66;5131953;27;45368;-93
2022/07/24 05:56:57;;;;;;;;;21.50;21.50;;;;;23.92;88.95;101599.81;5130596;27;45284;-95
2022/07/24 05:59:23;;;;;;;;;18.25;17.00;;;;;23.96;88.88;101604.28;5135191;27;45452;-92
2022/07/24 06:01:48;;;;;;;;;18.00;17.50;;;;;23.91;88.11;101587.50;5145037;27;45255;-91
2022/07/24 06:04:14;;;;;;;;;19.00;18.75;;;;;23.98;87.94;101594.59;5130690;27;45514;-86
2022/07/24 06:06:39;;;;;;;;;14.75;14.75;;;;;23.98;87.23;101589.31;5148497;27;45586;-86
2022/07/24 06:09:05;;;;;;;;;22.00;19.00;;;;;24.00;87.65;101595.50;5150352;27;45395;-87
2022/07/24 06:11:31;;;;;;;;;18.00;16.25;;;;;23.99;86.82;101588.44;5148597;27;45556;-86
2022/07/24 06:13:56;;;;;;;;;16.75;15.50;;;;;24.09;86.04;101594.59;5144791;27;45321;-88
2022/07/24 06:16:22;;;;;;;;;17.00;14.50;;;;;24.11;85.76;101588.44;5143308;27;45309;-86
2022/07/24 06:18:47;;;;;;;;;17.00;14.00;;;;;24.10;85.42;101591.97;5124398;27;45269;-86
2022/07/24 06:21:13;;;;;;;;;17.25;15.50;;;;;24.14;85.13;101594.59;5151279;27;45278;-86
2022/07/24 06:23:38;;;;;;;;;14.00;13.00;;;;;24.15;84.99;101589.31;5126755;27;45433;-84
2022/07/24 06:26:04;;;;;;;;;15.50;14.50;;;;;24.13;84.35;101580.50;5144185;27;45424;-86
2022/07/24 06:28:31;;;;;;;;;12.50;12.50;;;;;24.21;84.39;101585.81;5145095;27;45378;-86
2022/07/24 06:30:57;;;;;;;;;16.25;14.50;;;;;24.23;84.30;101581.41;5140624;27;45474;-88
2022/07/24 06:33:23;;;;;;;;;14.25;12.75;;;;;24.22;83.77;101577.00;5146221;27;45467;-82
2022/07/24 06:35:48;;;;;;;;;17.50;14.50;;;;;24.25;83.97;101580.50;5146146;27;45311;-86
2022/07/24 06:38:16;;;;;;;;;16.75;13.25;;;;;24.26;82.93;101579.63;5127840;27;45297;-81
2022/07/24 06:40:41;;;;;;;;;11.75;11.75;;;;;24.29;83.05;101575.22;5119674;27;45726;-84
2022/07/24 06:43:07;;;;;;;;;14.25;13.25;;;;;24.31;82.41;101573.44;5119523;27;45287;-84
2022/07/24 06:45:32;;;;;;;;;17.75;15.00;;;;;24.30;82.42;101569.91;5103965;27;45388;-88
2022/07/24 06:48:02;;;;;;;;;15.50;14.00;;;;;24.33;82.50;101567.28;5101185;27;46920;-85
2022/07/24 06:50:30;;;;;;;;;14.25;14.25;;;;;24.40;81.89;101573.47;5099814;27;45390;-84
2022/07/24 06:52:56;;;;;;;;;19.50;17.25;;;;;24.41;81.86;101569.91;5119135;27;45791;-87
2022/07/24 06:55:22;;;;;;;;;19.75;17.00;;;;;24.47;82.36;101569.91;5112808;27;45437;-85
2022/07/24 06:57:47;;;;;;;;;16.50;15.00;;;;;24.49;82.27;101573.44;5100075;27;46865;-91
2022/07/24 07:00:15;;;;;;;;;20.00;15.50;;;;;24.49;82.60;101570.81;5144710;27;45203;-92
2022/07/24 07:02:40;;;;;;;;;23.75;15.75;;;;;24.50;82.11;101571.66;5134267;27;45361;-90
2022/07/24 07:05:08;;;;;;;;;19.50;18.00;;;;;24.49;81.77;101575.19;5146044;27;45353;-90
2022/07/24 07:07:35;;;;;;;;;18.00;16.50;;;;;24.45;82.93;101576.09;5133408;27;45380;-85
2022/07/24 07:10:01;;;;;;;;;16.50;16.50;;;;;24.42;83.09;101569.03;5132089;27;45356;-85
2022/07/24 07:12:27;;;;;;;;;18.75;17.00;;;;;24.47;82.59;101571.66;5136939;27;45253;-85
2022/07/24 07:14:53;;;;;;;;;20.75;17.25;;;;;24.51;82.32;101570.78;5152171;27;44755;-85
2022/07/24 07:17:19;;;;;;;;;17.25;15.25;;;;;24.47;82.73;101575.22;5142102;27;45362;-89
2022/07/24 07:19:44;;;;;;;;;17.00;17.00;;;;;24.47;82.08;101582.25;5141401;27;45238;-91
2022/07/24 07:22:10;;;;;;;;;18.75;17.50;;;;;24.43;82.51;101573.44;5142928;27;45282;-87
2022/07/24 07:24:37;;;;;;;;;19.25;16.75;;;;;24.41;82.96;101576.09;5112504;27;46520;-88
2022/07/24 07:27:02;;;;;;;;;17.00;16.25;;;;;24.42;83.06;101569.03;5131955;27;45401;-84
2022/07/24 07:29:28;;;;;;;;;20.25;15.75;;;;;24.42;83.72;101567.28;5149902;27;45283;-84
2022/07/24 07:31:54;;;;;;;;;22.25;16.75;;;;;24.50;83.70;101574.31;5123110;27;45358;-86
2022/07/24 07:34:20;;;;;;;;;22.50;18.50;;;;;24.52;83.72;101573.41;5124447;27;45651;-87
2022/07/24 07:36:45;;;;;;;;;17.00;16.25;;;;;24.52;83.77;101562.84;5141674;27;45890;-88
2022/07/24 07:39:11;;;;;;;;;19.00;17.00;;;;;24.61;83.88;101569.03;5140873;27;45288;-86
2022/07/24 07:41:37;;;;;;;;;11.00;9.75;;;;;24.69;83.25;101569.91;5140087;27;45316;-85
2022/07/24 07:44:06;;;;;;;;;18.00;18.00;;;;;24.75;82.76;101571.69;5124102;27;45259;-85
2022/07/24 07:46:32;;;;;;;;;22.50;19.50;;;;;24.78;82.39;101569.91;5129958;27;45576;-86
2022/07/24 07:49:01;;;;;;;;;19.00;17.00;;;;;24.80;82.83;101568.13;5145145;27;45452;-87
2022/07/24 07:51:27;;;;;;;;;18.00;18.00;;;;;24.73;82.73;101551.38;5124111;27;45291;-90
2022/07/24 07:53:53;;;;;;;;;21.00;20.25;;;;;24.78;83.06;101551.34;5149172;27;45334;-86
2022/07/24 07:56:20;;;;;;;;;22.00;18.50;;;;;24.83;82.42;101560.19;5151865;27;45396;-85
2022/07/24 07:58:46;;;;;;;;;18.50;17.00;;;;;24.83;82.53;101549.59;5149940;27;45811;-88
2022/07/24 08:01:12;;;;;;;;;18.75;18.00;;;;;24.76;83.17;101531.94;5127847;27;45359;-86
2022/07/24 08:03:37;;;;;;;;;19.50;18.00;;;;;24.95;82.85;101559.25;5143520;27;45559;-87
2022/07/24 08:06:04;;;;;;;;;19.25;16.75;;;;;24.96;82.47;101541.56;5143007;27;45285;-86
2022/07/24 08:08:30;;;;;;;;;22.00;17.00;;;;;24.99;82.43;101541.56;5145176;27;45699;-92
2022/07/24 08:10:56;;;;;;;;;22.00;16.75;;;;;25.09;82.55;101548.59;5129321;27;45043;-89
2022/07/24 08:13:21;;;;;;;;;18.25;16.00;;;;;25.13;82.14;101549.47;5130325;27;45425;-88
2022/07/24 08:15:47;;;;;;;;;20.75;19.50;;;;;25.14;82.46;101536.22;5126632;27;47481;-87
2022/07/24 08:18:12;;;;;;;;;21.25;19.75;;;;;25.13;81.79;101529.16;5130565;27;45443;-87
2022/07/24 08:20:38;;;;;;;;;17.75;17.50;;;;;25.21;81.91;101537.09;5130823;27;45179;-88
2022/07/24 08:23:04;;;;;;;;;19.00;17.00;;;;;25.27;81.23;101530.88;5148169;27;45393;-87
2022/07/24 08:25:29;;;;;;;;;18.50;16.75;;;;;25.34;80.57;101543.19;5125779;27;45442;-87
2022/07/24 08:27:55;;;;;;;;;16.75;14.75;;;;;25.29;81.13;101535.28;5127069;27;45387;-88
2022/07/24 08:30:21;;;;;;;;;17.00;16.75;;;;;25.34;79.55;101536.13;5144834;27;45429;-85
2022/07/24 08:32:47;;;;;;;;;17.75;16.75;;;;;25.41;78.35;101544.09;5143402;27;45455;-82
2022/07/24 08:35:14;;;;;;;;;19.00;18.00;;;;;25.43;77.36;101540.53;5124042;27;45381;-83
2022/07/24 08:37:41;;;;;;;;;19.00;17.50;;;;;25.49;76.36;101543.13;5125602;27;45340;-84
2022/07/24 08:40:08;;;;;;;;;19.50;18.00;;;;;25.46;75.60;101529.03;5142869;27;45379;-85
2022/07/24 08:42:35;;;;;;;;;15.25;13.50;;;;;25.49;73.59;101529.88;5123110;27;45562;-85
2022/07/24 08:45:02;;;;;;;;;14.00;13.00;;;;;25.52;73.24;101526.34;5142222;27;46399;-83
2022/07/24 08:47:29;;;;;;;;;17.25;16.00;;;;;25.58;72.40;101528.09;5146020;27;45286;-84
2022/07/24 08:49:57;;;;;;;;;16.25;12.00;;;;;25.62;72.70;101532.47;5128447;27;45445;-88
2022/07/24 08:52:23;;;;;;;;;16.00;15.00;;;;;25.62;72.96;101517.44;5145670;27;45239;-91
2022/07/24 08:54:49;;;;;;;;;14.75;14.00;;;;;25.62;71.04;101517.44;5127266;27;47903;-91
2022/07/24 08:57:15;;;;;;;;;16.00;13.75;;;;;25.71;69.77;101524.44;5145332;27;45660;-90
2022/07/24 08:59:40;;;;;;;;;12.00;11.50;;;;;25.75;69.78;101517.38;5144553;27;45329;-85
2022/07/24 09:02:07;;;;;;;;;13.50;12.00;;;;;25.75;68.64;101504.97;5145104;27;45322;-89
2022/07/24 09:04:42;;;;;;;;;13.00;12.25;;;;;25.71;68.66;101487.31;5109288;27;47165;-89
2022/07/24 09:07:28;;;;;;;;;17.50;15.50;;;;;25.86;69.25;101501.34;5145084;27;45767;-89
2022/07/24 09:09:58;;;;;;;;;12.50;11.00;;;;;25.88;69.64;101500.44;5128308;27;45452;-90
2022/07/24 09:12:24;;;;;;;;;16.00;15.00;;;;;25.90;69.18;101509.28;5136461;27;45261;-85
2022/07/24 09:14:50;;;;;;;;;15.50;12.25;;;;;25.91;70.80;101500.41;5152300;27;46173;-85
2022/07/24 09:17:19;;;;;;;;;17.00;15.00;;;;;25.94;71.15;101500.41;5150408;27;45376;-86
2022/07/24 09:19:59;;;;;;;;;15.00;14.00;;;;;25.99;70.36;101499.47;5144207;27;45339;-86
2022/07/24 09:22:25;;;;;;;;;14.50;14.25;;;;;26.04;69.28;101497.66;5142976;27;45233;-86
2022/07/24 09:25:09;;;;;;;;;15.00;14.75;;;;;26.05;69.81;101492.34;5144762;27;45666;-86
2022/07/24 09:27:41;;;;;;;;;13.25;12.25;;;;;26.10;68.33;101484.38;5125485;27;45494;-89
2022/07/24 09:30:08;;;;;;;;;15.25;14.75;;;;;26.10;67.27;101485.25;5144061;27;45193;-86
2022/07/24 09:32:34;;;;;;;;;11.50;11.50;;;;;26.17;66.47;101494.06;5143435;27;45508;-86
2022/07/24 09:34:59;;;;;;;;;11.50;11.50;;;;;26.19;64.73;101478.09;5143960;27;45495;-84
2022/07/24 09:37:28;;;;;;;;;11.25;10.00;;;;;26.24;64.14;101482.47;5148813;27;44767;-88
2022/07/24 09:40:07;;;;;;;;;13.75;12.00;;;;;26.28;63.53;101472.69;5148130;27;45453;-86
2022/07/24 09:42:38;;;;;;;;;11.00;11.00;;;;;26.24;63.61;101457.72;5143229;27;45268;-85
2022/07/24 09:45:07;;;;;;;;;12.00;12.00;;;;;26.34;65.22;101471.75;5135625;27;45547;-86
2022/07/24 09:47:34;;;;;;;;;9.50;8.25;;;;;26.34;63.04;101461.13;5125833;27;45837;-84
2022/07/24 09:50:12;;;;;;;;;9.25;9.25;;;;;26.40;61.25;101469.06;5123036;27;45474;-87
2022/07/24 09:52:41;;;;;;;;;8.50;8.00;;;;;26.46;61.42;101465.44;5123170;27;45577;-87
2022/07/24 09:55:34;;;;;;;;;9.50;9.00;;;;;26.48;60.71;101464.53;5148406;27;45524;-86
2022/07/24 09:58:00;;;;;;;;;10.50;10.25;;;;;26.50;60.27;101467.16;5142458;27;45785;-86
2022/07/24 10:00:27;;;;;;;;;10.00;9.00;;;;;26.50;61.22;101457.44;5123970;27;45283;-91
2022/07/24 10:02:57;;;;;;;;;9.25;9.00;;;;;26.57;60.98;101445.81;5146227;27;45241;-89
2022/07/24 10:05:27;;;;;;;;;11.50;9.75;;;;;26.62;60.23;101450.22;5129294;27;46794;-87
2022/07/24 10:07:56;;;;;;;;;9.00;9.00;;;;;26.59;59.47;101435.16;5125269;27;45391;-89
2022/07/24 10:10:27;;;;;;;;;13.50;9.75;;;;;26.71;58.56;101455.41;5142088;27;45401;-89
2022/07/24 10:12:52;;;;;;;;;8.00;7.25;;;;;26.73;57.00;101454.50;5141609;27;45313;-90
2022/07/24 10:15:18;;;;;;;;;9.50;8.75;;;;;26.72;56.16;101443.88;5122109;27;47189;-89
2022/07/24 10:18:30;;;;;;;;;9.00;8.00;;;;;26.75;55.98;101449.16;5145391;27;45273;-89
2022/07/24 10:21:06;;;;;;;;;9.25;6.50;;;;;26.80;56.77;101443.81;5138012;27;45651;-89
2022/07/24 10:23:47;;;;;;;;;10.75;8.75;;;;;26.85;57.64;101448.16;5125321;27;45281;-92
2022/07/24 10:26:19;;;;;;;;;9.50;8.50;;;;;26.93;57.31;101452.50;5124058;27;47116;-87
2022/07/24 10:28:56;;;;;;;;;10.75;10.75;;;;;26.94;56.72;101449.81;5147360;27;45731;-88
2022/07/24 10:31:21;;;;;;;;;12.50;10.25;;;;;26.99;54.91;101447.09;5147611;27;45296;-88
2022/07/24 10:33:54;;;;;;;;;9.50;7.50;;;;;26.99;54.92;101441.78;5127016;27;45349;-88
2022/07/24 10:36:30;;;;;;;;;11.75;8.00;;;;;27.09;53.66;101429.25;5146589;27;45301;-90
2022/07/24 10:39:14;;;;;;;;;7.25;6.50;;;;;27.17;53.37;101433.53;5131208;27;45486;-88
2022/07/24 10:41:43;;;;;;;;;9.25;9.00;;;;;27.19;53.06;101428.22;5142198;27;45388;-87
2022/07/24 10:44:20;;;;;;;;;10.50;9.75;;;;;27.29;53.56;101426.28;5123428;27;45419;-87
2022/07/24 10:47:12;;;;;;;;;9.75;9.75;;;;;27.33;52.56;101426.22;5124267;27;47059;-87
2022/07/24 10:49:49;;;;;;;;;7.75;7.25;;;;;27.37;52.06;101419.09;5121972;27;45514;-85
2022/07/24 10:52:32;;;;;;;;;8.25;8.25;;;;;27.32;51.59;101407.63;5141185;27;45354;-85
2022/07/24 10:55:20;;;;;;;;;10.00;7.25;;;;;27.42;50.93;101411.91;5146673;27;45243;-86
2022/07/24 10:57:54;;;;;;;;;8.00;8.00;;;;;27.46;49.79;101412.75;5126208;27;46075;-86
2022/07/24 11:00:46;;;;;;;;;10.25;8.00;;;;;27.43;49.65;101391.53;5122213;27;45323;-84
2022/07/24 11:03:24;;;;;;;;;5.25;5.25;;;;;27.63;49.64;101413.38;5121984;27;45451;-85
2022/07/24 11:06:12;;;;;;;;;7.75;7.75;;;;;27.64;50.10;101395.63;5122840;27;45570;-85
2022/07/24 11:08:39;;;;;;;;;7.00;7.00;;;;;27.65;50.02;101390.25;5141170;27;46507;-83
2022/07/24 11:11:08;;;;;;;;;10.00;9.00;;;;;27.70;49.69;101399.97;5121877;27;45822;-87
2022/07/24 11:13:33;;;;;;;;;9.50;8.00;;;;;27.72;49.20;101395.50;5142717;27;45365;-87